sensor_id;sensor_type;location;lat;lon;timestamp;P1;durP1;ratioP1;P2;durP2;ratioP2
21034;SDS011;10676;50.848;3.272;2023-01-16T00:01:14;11.20;;;10.53;;
21034;SDS011;10676;50.848;3.272;2023-01-16T00:03:40;13.20;;;11.87;;
21034;SDS011;10676;50.848;3.272;2023-01-16T00:06:06;11.60;;;10.40;;
21034;SDS011;10676;50.848;3.272;2023-01-16T00:08:31;11.57;;;10.37;;
21034;SDS011;10676;50.848;3.272;2023-01-16T00:10:57;13.83;;;11.90;;
21034;SDS011;10676;50.848;3.272;2023-01-16T00:13:23;11.83;;;11.03;;
21034;SDS011;10676;50.848;3.272;2023-01-16T00:15:49;12.67;;;11.67;;
21034;SDS011;10676;50.848;3.272;2023-01-16T00:18:16;13.03;;;11.50;;
21034;SDS011;10676;50.848;3.272;2023-01-16T00:20:43;11.23;;;10.47;;
21034;SDS011;10676;50.848;3.272;2023-01-16T00:23:09;11.37;;;10.23;;
21034;SDS011;10676;50.848;3.272;2023-01-16T00:25:42;12.63;;;11.53;;
21034;SDS011;10676;50.848;3.272;2023-01-16T00:28:09;12.70;;;11.80;;
21034;SDS011;10676;50.848;3.272;2023-01-16T00:30:35;11.87;;;10.97;;
21034;SDS011;10676;50.848;3.272;2023-01-16T00:33:02;11.20;;;10.10;;
21034;SDS011;10676;50.848;3.272;2023-01-16T00:35:28;12.23;;;11.17;;
21034;SDS011;10676;50.848;3.272;2023-01-16T00:37:54;11.83;;;11.03;;
21034;SDS011;10676;50.848;3.272;2023-01-16T00:40:20;11.77;;;10.80;;
21034;SDS011;10676;50.848;3.272;2023-01-16T00:42:45;11.37;;;10.57;;
21034;SDS011;10676;50.848;3.272;2023-01-16T00:45:11;11.13;;;10.43;;
21034;SDS011;10676;50.848;3.272;2023-01-16T00:47:37;11.83;;;10.90;;
21034;SDS011;10676;50.848;3.272;2023-01-16T00:50:03;11.33;;;10.57;;
21034;SDS011;10676;50.848;3.272;2023-01-16T00:52:29;11.37;;;10.47;;
21034;SDS011;10676;50.848;3.272;2023-01-16T00:54:55;11.53;;;10.43;;
21034;SDS011;10676;50.848;3.272;2023-01-16T00:57:20;11.07;;;10.13;;
21034;SDS011;10676;50.848;3.272;2023-01-16T00:59:46;10.80;;;9.97;;
21034;SDS011;10676;50.848;3.272;2023-01-16T01:02:12;10.43;;;9.70;;
21034;SDS011;10676;50.848;3.272;2023-01-16T01:04:38;11.37;;;10.27;;
21034;SDS011;10676;50.848;3.272;2023-01-16T01:07:04;11.03;;;10.03;;
21034;SDS011;10676;50.848;3.272;2023-01-16T01:09:29;10.63;;;10.00;;
21034;SDS011;10676;50.848;3.272;2023-01-16T01:11:58;11.43;;;10.40;;
21034;SDS011;10676;50.848;3.272;2023-01-16T01:14:24;10.13;;;8.60;;
21034;SDS011;10676;50.848;3.272;2023-01-16T01:16:50;9.83;;;9.10;;
21034;SDS011;10676;50.848;3.272;2023-01-16T01:19:16;10.67;;;9.97;;
21034;SDS011;10676;50.848;3.272;2023-01-16T01:21:42;10.80;;;9.77;;
21034;SDS011;10676;50.848;3.272;2023-01-16T01:24:08;11.13;;;10.27;;
21034;SDS011;10676;50.848;3.272;2023-01-16T01:26:33;10.30;;;9.60;;
21034;SDS011;10676;50.848;3.272;2023-01-16T01:28:59;11.45;;;10.30;;
21034;SDS011;10676;50.848;3.272;2023-01-16T01:31:25;12.17;;;10.57;;
21034;SDS011;10676;50.848;3.272;2023-01-16T01:33:50;11.77;;;10.37;;
21034;SDS011;10676;50.848;3.272;2023-01-16T01:36:16;13.18;;;9.98;;
21034;SDS011;10676;50.848;3.272;2023-01-16T01:38:42;14.15;;;10.75;;
21034;SDS011;10676;50.848;3.272;2023-01-16T01:41:08;14.38;;;11.30;;
21034;SDS011;10676;50.848;3.272;2023-01-16T01:43:42;11.48;;;10.35;;
21034;SDS011;10676;50.848;3.272;2023-01-16T01:46:34;12.88;;;10.50;;
21034;SDS011;10676;50.848;3.272;2023-01-16T01:49:15;21.02;;;10.40;;
21034;SDS011;10676;50.848;3.272;2023-01-16T01:51:51;23.20;;;10.73;;
21034;SDS011;10676;50.848;3.272;2023-01-16T01:54:22;15.30;;;10.95;;
21034;SDS011;10676;50.848;3.272;2023-01-16T01:56:54;12.05;;;9.77;;
21034;SDS011;10676;50.848;3.272;2023-01-16T01:59:32;12.52;;;10.70;;
21034;SDS011;10676;50.848;3.272;2023-01-16T02:02:04;11.35;;;10.27;;
21034;SDS011;10676;50.848;3.272;2023-01-16T02:04:32;17.40;;;10.18;;
21034;SDS011;10676;50.848;3.272;2023-01-16T02:07:02;17.10;;;11.00;;
21034;SDS011;10676;50.848;3.272;2023-01-16T02:09:32;18.90;;;11.75;;
21034;SDS011;10676;50.848;3.272;2023-01-16T02:12:03;14.55;;;10.18;;
21034;SDS011;10676;50.848;3.272;2023-01-16T02:14:34;16.63;;;10.48;;
21034;SDS011;10676;50.848;3.272;2023-01-16T02:17:06;18.48;;;11.05;;
21034;SDS011;10676;50.848;3.272;2023-01-16T02:22:47;19.25;;;10.77;;
21034;SDS011;10676;50.848;3.272;2023-01-16T02:39:54;18.35;;;12.02;;
21034;SDS011;10676;50.848;3.272;2023-01-16T02:45:25;11.85;;;10.43;;
21034;SDS011;10676;50.848;3.272;2023-01-16T02:48:10;18.38;;;11.05;;
21034;SDS011;10676;50.848;3.272;2023-01-16T02:53:11;13.95;;;10.27;;
21034;SDS011;10676;50.848;3.272;2023-01-16T02:55:40;16.42;;;10.88;;
21034;SDS011;10676;50.848;3.272;2023-01-16T02:58:32;18.65;;;11.30;;
21034;SDS011;10676;50.848;3.272;2023-01-16T03:00:59;15.93;;;11.23;;
21034;SDS011;10676;50.848;3.272;2023-01-16T03:09:20;13.85;;;9.02;;
21034;SDS011;10676;50.848;3.272;2023-01-16T03:15:03;14.18;;;10.30;;
21034;SDS011;10676;50.848;3.272;2023-01-16T03:17:45;15.02;;;10.00;;
21034;SDS011;10676;50.848;3.272;2023-01-16T03:23:30;16.02;;;9.60;;
21034;SDS011;10676;50.848;3.272;2023-01-16T03:26:14;16.02;;;9.90;;
21034;SDS011;10676;50.848;3.272;2023-01-16T03:34:00;15.98;;;10.10;;
21034;SDS011;10676;50.848;3.272;2023-01-16T03:39:09;13.40;;;11.82;;
21034;SDS011;10676;50.848;3.272;2023-01-16T03:41:37;15.52;;;10.88;;
21034;SDS011;10676;50.848;3.272;2023-01-16T03:44:07;14.90;;;10.98;;
21034;SDS011;10676;50.848;3.272;2023-01-16T03:46:40;17.85;;;10.82;;
21034;SDS011;10676;50.848;3.272;2023-01-16T03:49:14;22.08;;;10.57;;
21034;SDS011;10676;50.848;3.272;2023-01-16T03:51:47;11.60;;;10.57;;
21034;SDS011;10676;50.848;3.272;2023-01-16T03:56:59;16.85;;;10.93;;
21034;SDS011;10676;50.848;3.272;2023-01-16T03:59:35;22.05;;;10.50;;
21034;SDS011;10676;50.848;3.272;2023-01-16T04:02:04;13.85;;;10.02;;
21034;SDS011;10676;50.848;3.272;2023-01-16T04:07:45;13.55;;;11.05;;
21034;SDS011;10676;50.848;3.272;2023-01-16T04:10:21;11.27;;;10.20;;
21034;SDS011;10676;50.848;3.272;2023-01-16T04:12:52;23.17;;;11.02;;
21034;SDS011;10676;50.848;3.272;2023-01-16T04:15:24;20.05;;;10.77;;
21034;SDS011;10676;50.848;3.272;2023-01-16T04:17:52;12.65;;;10.20;;
21034;SDS011;10676;50.848;3.272;2023-01-16T04:20:19;12.52;;;9.43;;
21034;SDS011;10676;50.848;3.272;2023-01-16T04:22:48;14.50;;;10.45;;
21034;SDS011;10676;50.848;3.272;2023-01-16T04:25:15;13.30;;;10.48;;
21034;SDS011;10676;50.848;3.272;2023-01-16T04:27:42;15.45;;;9.40;;
21034;SDS011;10676;50.848;3.272;2023-01-16T04:30:08;10.10;;;9.18;;
21034;SDS011;10676;50.848;3.272;2023-01-16T04:32:34;18.80;;;9.55;;
21034;SDS011;10676;50.848;3.272;2023-01-16T04:35:00;14.82;;;9.02;;
21034;SDS011;10676;50.848;3.272;2023-01-16T04:37:29;12.57;;;8.80;;
21034;SDS011;10676;50.848;3.272;2023-01-16T04:39:54;9.82;;;8.88;;
21034;SDS011;10676;50.848;3.272;2023-01-16T04:42:20;20.08;;;8.73;;
21034;SDS011;10676;50.848;3.272;2023-01-16T04:44:46;22.70;;;20.83;;
21034;SDS011;10676;50.848;3.272;2023-01-16T04:47:11;10.38;;;9.27;;
21034;SDS011;10676;50.848;3.272;2023-01-16T04:49:37;12.55;;;9.98;;
21034;SDS011;10676;50.848;3.272;2023-01-16T04:52:03;12.70;;;11.48;;
21034;SDS011;10676;50.848;3.272;2023-01-16T04:54:29;10.70;;;9.57;;
21034;SDS011;10676;50.848;3.272;2023-01-16T04:56:55;11.80;;;9.05;;
21034;SDS011;10676;50.848;3.272;2023-01-16T04:59:20;12.65;;;9.65;;
21034;SDS011;10676;50.848;3.272;2023-01-16T05:01:46;14.85;;;11.45;;
21034;SDS011;10676;50.848;3.272;2023-01-16T05:04:13;11.05;;;8.75;;
21034;SDS011;10676;50.848;3.272;2023-01-16T05:06:39;11.50;;;7.85;;
21034;SDS011;10676;50.848;3.272;2023-01-16T05:09:05;10.40;;;9.50;;
21034;SDS011;10676;50.848;3.272;2023-01-16T05:11:31;8.98;;;8.23;;
21034;SDS011;10676;50.848;3.272;2023-01-16T05:13:57;9.10;;;8.20;;
21034;SDS011;10676;50.848;3.272;2023-01-16T05:16:23;9.63;;;8.63;;
21034;SDS011;10676;50.848;3.272;2023-01-16T05:18:49;9.15;;;8.23;;
21034;SDS011;10676;50.848;3.272;2023-01-16T05:21:15;9.85;;;9.25;;
21034;SDS011;10676;50.848;3.272;2023-01-16T05:23:41;9.68;;;8.75;;
21034;SDS011;10676;50.848;3.272;2023-01-16T05:26:06;9.75;;;9.05;;
21034;SDS011;10676;50.848;3.272;2023-01-16T05:28:33;10.43;;;9.57;;
21034;SDS011;10676;50.848;3.272;2023-01-16T05:30:59;9.13;;;8.50;;
21034;SDS011;10676;50.848;3.272;2023-01-16T05:33:25;8.68;;;8.18;;
21034;SDS011;10676;50.848;3.272;2023-01-16T05:35:51;9.77;;;9.07;;
21034;SDS011;10676;50.848;3.272;2023-01-16T05:38:18;9.40;;;8.57;;
21034;SDS011;10676;50.848;3.272;2023-01-16T05:40:44;9.27;;;8.60;;
21034;SDS011;10676;50.848;3.272;2023-01-16T05:43:11;9.35;;;8.43;;
21034;SDS011;10676;50.848;3.272;2023-01-16T05:45:36;8.73;;;8.23;;
21034;SDS011;10676;50.848;3.272;2023-01-16T05:48:02;9.27;;;8.68;;
21034;SDS011;10676;50.848;3.272;2023-01-16T05:50:28;10.57;;;9.55;;
21034;SDS011;10676;50.848;3.272;2023-01-16T05:52:54;9.68;;;8.98;;
21034;SDS011;10676;50.848;3.272;2023-01-16T05:55:19;10.98;;;9.93;;
21034;SDS011;10676;50.848;3.272;2023-01-16T05:57:45;9.20;;;8.70;;
21034;SDS011;10676;50.848;3.272;2023-01-16T06:00:11;8.75;;;8.13;;
21034;SDS011;10676;50.848;3.272;2023-01-16T06:02:37;8.43;;;8.02;;
21034;SDS011;10676;50.848;3.272;2023-01-16T06:05:03;8.45;;;7.85;;
21034;SDS011;10676;50.848;3.272;2023-01-16T06:07:29;8.30;;;7.70;;
21034;SDS011;10676;50.848;3.272;2023-01-16T06:09:55;8.18;;;7.68;;
21034;SDS011;10676;50.848;3.272;2023-01-16T06:12:20;8.80;;;8.30;;
21034;SDS011;10676;50.848;3.272;2023-01-16T06:14:46;8.52;;;8.13;;
21034;SDS011;10676;50.848;3.272;2023-01-16T06:17:12;8.35;;;7.85;;
21034;SDS011;10676;50.848;3.272;2023-01-16T06:19:40;8.93;;;8.35;;
21034;SDS011;10676;50.848;3.272;2023-01-16T06:22:06;8.40;;;8.10;;
21034;SDS011;10676;50.848;3.272;2023-01-16T06:24:32;8.35;;;7.90;;
21034;SDS011;10676;50.848;3.272;2023-01-16T06:26:58;8.05;;;7.38;;
21034;SDS011;10676;50.848;3.272;2023-01-16T06:29:23;7.97;;;7.40;;
21034;SDS011;10676;50.848;3.272;2023-01-16T06:31:49;8.07;;;7.35;;
21034;SDS011;10676;50.848;3.272;2023-01-16T06:34:15;8.23;;;7.82;;
21034;SDS011;10676;50.848;3.272;2023-01-16T06:36:41;8.10;;;7.70;;
21034;SDS011;10676;50.848;3.272;2023-01-16T06:39:09;8.55;;;8.15;;
21034;SDS011;10676;50.848;3.272;2023-01-16T06:41:36;8.35;;;7.85;;
21034;SDS011;10676;50.848;3.272;2023-01-16T06:44:01;7.72;;;7.32;;
21034;SDS011;10676;50.848;3.272;2023-01-16T06:46:27;8.18;;;7.82;;
21034;SDS011;10676;50.848;3.272;2023-01-16T06:48:53;8.68;;;7.80;;
21034;SDS011;10676;50.848;3.272;2023-01-16T06:51:18;8.43;;;7.93;;
21034;SDS011;10676;50.848;3.272;2023-01-16T06:53:44;8.35;;;7.97;;
21034;SDS011;10676;50.848;3.272;2023-01-16T06:56:10;7.97;;;7.68;;
21034;SDS011;10676;50.848;3.272;2023-01-16T06:58:35;8.55;;;7.95;;
21034;SDS011;10676;50.848;3.272;2023-01-16T07:01:01;7.88;;;7.57;;
21034;SDS011;10676;50.848;3.272;2023-01-16T07:03:27;7.75;;;7.10;;
21034;SDS011;10676;50.848;3.272;2023-01-16T07:05:52;7.95;;;7.22;;
21034;SDS011;10676;50.848;3.272;2023-01-16T07:08:18;7.97;;;7.38;;
21034;SDS011;10676;50.848;3.272;2023-01-16T07:10:43;7.40;;;7.00;;
21034;SDS011;10676;50.848;3.272;2023-01-16T07:13:09;8.65;;;8.05;;
21034;SDS011;10676;50.848;3.272;2023-01-16T07:15:36;8.02;;;7.55;;
21034;SDS011;10676;50.848;3.272;2023-01-16T07:18:20;8.70;;;8.30;;
21034;SDS011;10676;50.848;3.272;2023-01-16T07:21:05;7.85;;;7.32;;
21034;SDS011;10676;50.848;3.272;2023-01-16T07:24:00;7.80;;;7.38;;
21034;SDS011;10676;50.848;3.272;2023-01-16T07:26:28;7.32;;;6.80;;
21034;SDS011;10676;50.848;3.272;2023-01-16T07:28:54;6.97;;;6.50;;
21034;SDS011;10676;50.848;3.272;2023-01-16T07:31:21;7.00;;;6.55;;
21034;SDS011;10676;50.848;3.272;2023-01-16T07:33:47;7.75;;;7.35;;
21034;SDS011;10676;50.848;3.272;2023-01-16T07:36:13;7.70;;;7.20;;
21034;SDS011;10676;50.848;3.272;2023-01-16T07:38:39;7.28;;;6.78;;
21034;SDS011;10676;50.848;3.272;2023-01-16T07:41:04;7.32;;;6.78;;
21034;SDS011;10676;50.848;3.272;2023-01-16T07:43:30;7.75;;;7.25;;
21034;SDS011;10676;50.848;3.272;2023-01-16T07:45:56;7.90;;;7.30;;
21034;SDS011;10676;50.848;3.272;2023-01-16T07:48:22;7.55;;;7.03;;
21034;SDS011;10676;50.848;3.272;2023-01-16T07:50:49;7.85;;;7.10;;
21034;SDS011;10676;50.848;3.272;2023-01-16T07:53:16;8.38;;;7.70;;
21034;SDS011;10676;50.848;3.272;2023-01-16T07:55:46;8.45;;;7.72;;
21034;SDS011;10676;50.848;3.272;2023-01-16T07:58:16;8.25;;;7.55;;
21034;SDS011;10676;50.848;3.272;2023-01-16T08:00:43;9.35;;;8.60;;
21034;SDS011;10676;50.848;3.272;2023-01-16T08:03:09;7.95;;;7.47;;
21034;SDS011;10676;50.848;3.272;2023-01-16T08:05:35;7.85;;;7.30;;
21034;SDS011;10676;50.848;3.272;2023-01-16T08:08:01;8.18;;;7.70;;
21034;SDS011;10676;50.848;3.272;2023-01-16T08:10:27;7.88;;;7.53;;
21034;SDS011;10676;50.848;3.272;2023-01-16T08:12:52;9.32;;;8.73;;
21034;SDS011;10676;50.848;3.272;2023-01-16T08:15:18;9.00;;;8.40;;
21034;SDS011;10676;50.848;3.272;2023-01-16T08:17:44;9.40;;;8.48;;
21034;SDS011;10676;50.848;3.272;2023-01-16T08:20:10;9.38;;;8.73;;
21034;SDS011;10676;50.848;3.272;2023-01-16T08:22:46;9.50;;;8.95;;
21034;SDS011;10676;50.848;3.272;2023-01-16T08:25:14;9.65;;;8.82;;
21034;SDS011;10676;50.848;3.272;2023-01-16T08:27:41;9.35;;;8.85;;
21034;SDS011;10676;50.848;3.272;2023-01-16T08:30:07;9.38;;;8.77;;
21034;SDS011;10676;50.848;3.272;2023-01-16T08:32:34;9.85;;;9.27;;
21034;SDS011;10676;50.848;3.272;2023-01-16T08:35:00;9.43;;;9.00;;
21034;SDS011;10676;50.848;3.272;2023-01-16T08:37:29;10.07;;;9.07;;
21034;SDS011;10676;50.848;3.272;2023-01-16T08:39:55;9.05;;;8.50;;
21034;SDS011;10676;50.848;3.272;2023-01-16T08:42:20;10.02;;;9.52;;
21034;SDS011;10676;50.848;3.272;2023-01-16T08:45:05;9.45;;;8.68;;
21034;SDS011;10676;50.848;3.272;2023-01-16T08:47:51;9.23;;;7.68;;
21034;SDS011;10676;50.848;3.272;2023-01-16T08:50:35;9.65;;;9.02;;
21034;SDS011;10676;50.848;3.272;2023-01-16T08:53:19;9.98;;;9.48;;
21034;SDS011;10676;50.848;3.272;2023-01-16T08:55:44;8.82;;;8.43;;
21034;SDS011;10676;50.848;3.272;2023-01-16T08:58:10;8.98;;;8.48;;
21034;SDS011;10676;50.848;3.272;2023-01-16T09:00:35;9.25;;;8.73;;
21034;SDS011;10676;50.848;3.272;2023-01-16T09:03:02;8.73;;;8.25;;
21034;SDS011;10676;50.848;3.272;2023-01-16T09:05:27;9.07;;;8.48;;
21034;SDS011;10676;50.848;3.272;2023-01-16T09:07:53;9.25;;;8.57;;
21034;SDS011;10676;50.848;3.272;2023-01-16T09:10:19;9.45;;;8.95;;
21034;SDS011;10676;50.848;3.272;2023-01-16T09:12:45;9.25;;;8.55;;
21034;SDS011;10676;50.848;3.272;2023-01-16T09:15:29;8.57;;;8.18;;
21034;SDS011;10676;50.848;3.272;2023-01-16T09:17:55;8.25;;;7.75;;
21034;SDS011;10676;50.848;3.272;2023-01-16T09:20:21;7.95;;;7.50;;
21034;SDS011;10676;50.848;3.272;2023-01-16T09:22:46;7.85;;;7.35;;
21034;SDS011;10676;50.848;3.272;2023-01-16T09:25:13;8.05;;;7.60;;
21034;SDS011;10676;50.848;3.272;2023-01-16T09:27:38;8.15;;;7.70;;
21034;SDS011;10676;50.848;3.272;2023-01-16T09:30:05;8.20;;;7.80;;
21034;SDS011;10676;50.848;3.272;2023-01-16T09:32:31;8.02;;;7.63;;
21034;SDS011;10676;50.848;3.272;2023-01-16T09:34:58;8.80;;;8.10;;
21034;SDS011;10676;50.848;3.272;2023-01-16T09:37:24;8.15;;;7.57;;
21034;SDS011;10676;50.848;3.272;2023-01-16T09:39:49;8.05;;;7.68;;
21034;SDS011;10676;50.848;3.272;2023-01-16T09:45:36;7.10;;;6.72;;
21034;SDS011;10676;50.848;3.272;2023-01-16T09:48:09;7.32;;;6.90;;
21034;SDS011;10676;50.848;3.272;2023-01-16T09:50:49;7.25;;;6.85;;
21034;SDS011;10676;50.848;3.272;2023-01-16T09:53:22;9.13;;;8.32;;
21034;SDS011;10676;50.848;3.272;2023-01-16T09:56:15;8.93;;;8.48;;
21034;SDS011;10676;50.848;3.272;2023-01-16T09:59:02;8.60;;;8.15;;
21034;SDS011;10676;50.848;3.272;2023-01-16T10:01:45;8.55;;;8.15;;
21034;SDS011;10676;50.848;3.272;2023-01-16T10:04:19;8.32;;;7.70;;
21034;SDS011;10676;50.848;3.272;2023-01-16T10:06:55;7.10;;;6.70;;
21034;SDS011;10676;50.848;3.272;2023-01-16T10:09:50;7.85;;;7.28;;
21034;SDS011;10676;50.848;3.272;2023-01-16T10:12:23;7.05;;;6.65;;
21034;SDS011;10676;50.848;3.272;2023-01-16T10:28:23;8.70;;;8.30;;
21034;SDS011;10676;50.848;3.272;2023-01-16T10:31:01;7.78;;;7.47;;
21034;SDS011;10676;50.848;3.272;2023-01-16T10:33:54;16.15;;;15.45;;
21034;SDS011;10676;50.848;3.272;2023-01-16T10:36:29;17.83;;;16.90;;
21034;SDS011;10676;50.848;3.272;2023-01-16T10:39:00;14.55;;;13.90;;
21034;SDS011;10676;50.848;3.272;2023-01-16T10:41:33;15.27;;;14.57;;
21034;SDS011;10676;50.848;3.272;2023-01-16T10:44:38;13.73;;;13.00;;
21034;SDS011;10676;50.848;3.272;2023-01-16T10:47:28;15.93;;;15.00;;
21034;SDS011;10676;50.848;3.272;2023-01-16T10:50:17;15.20;;;14.50;;
21034;SDS011;10676;50.848;3.272;2023-01-16T10:52:45;16.52;;;15.82;;
21034;SDS011;10676;50.848;3.272;2023-01-16T10:55:12;14.82;;;14.02;;
21034;SDS011;10676;50.848;3.272;2023-01-16T10:57:49;14.70;;;14.00;;
21034;SDS011;10676;50.848;3.272;2023-01-16T11:00:21;14.55;;;13.73;;
21034;SDS011;10676;50.848;3.272;2023-01-16T11:02:56;14.65;;;13.95;;
21034;SDS011;10676;50.848;3.272;2023-01-16T11:08:05;16.48;;;15.48;;
21034;SDS011;10676;50.848;3.272;2023-01-16T11:10:36;16.25;;;15.48;;
21034;SDS011;10676;50.848;3.272;2023-01-16T11:13:04;15.00;;;14.20;;
21034;SDS011;10676;50.848;3.272;2023-01-16T11:16:02;15.63;;;14.82;;
21034;SDS011;10676;50.848;3.272;2023-01-16T11:18:48;13.70;;;13.00;;
21034;SDS011;10676;50.848;3.272;2023-01-16T11:21:16;15.38;;;14.57;;
21034;SDS011;10676;50.848;3.272;2023-01-16T11:23:43;16.92;;;16.00;;
21034;SDS011;10676;50.848;3.272;2023-01-16T11:26:11;13.88;;;13.13;;
21034;SDS011;10676;50.848;3.272;2023-01-16T11:28:38;14.32;;;13.63;;
21034;SDS011;10676;50.848;3.272;2023-01-16T11:31:22;15.55;;;14.73;;
21034;SDS011;10676;50.848;3.272;2023-01-16T11:33:52;14.25;;;13.45;;
21034;SDS011;10676;50.848;3.272;2023-01-16T11:36:26;15.82;;;14.82;;
21034;SDS011;10676;50.848;3.272;2023-01-16T11:38:54;13.23;;;12.10;;
21034;SDS011;10676;50.848;3.272;2023-01-16T11:41:24;15.05;;;14.25;;
21034;SDS011;10676;50.848;3.272;2023-01-16T11:44:13;18.15;;;17.27;;
21034;SDS011;10676;50.848;3.272;2023-01-16T11:46:58;17.83;;;16.85;;
21034;SDS011;10676;50.848;3.272;2023-01-16T11:49:27;24.23;;;22.88;;
21034;SDS011;10676;50.848;3.272;2023-01-16T11:51:59;25.30;;;24.10;;
21034;SDS011;10676;50.848;3.272;2023-01-16T11:54:31;23.92;;;22.67;;
21034;SDS011;10676;50.848;3.272;2023-01-16T11:57:14;26.13;;;24.50;;
21034;SDS011;10676;50.848;3.272;2023-01-16T12:11:39;11.73;;;10.88;;
21034;SDS011;10676;50.848;3.272;2023-01-16T12:14:53;12.20;;;11.40;;
21034;SDS011;10676;50.848;3.272;2023-01-16T12:17:43;11.77;;;10.85;;
21034;SDS011;10676;50.848;3.272;2023-01-16T12:25:35;12.60;;;12.00;;
21034;SDS011;10676;50.848;3.272;2023-01-16T12:45:50;12.15;;;11.10;;
21034;SDS011;10676;50.848;3.272;2023-01-16T12:56:41;12.55;;;11.77;;
21034;SDS011;10676;50.848;3.272;2023-01-16T12:59:22;8.95;;;8.55;;
21034;SDS011;10676;50.848;3.272;2023-01-16T13:01:49;10.25;;;9.68;;
21034;SDS011;10676;50.848;3.272;2023-01-16T13:04:33;8.90;;;8.43;;
21034;SDS011;10676;50.848;3.272;2023-01-16T13:07:03;11.18;;;10.48;;
21034;SDS011;10676;50.848;3.272;2023-01-16T13:12:10;9.98;;;9.25;;
21034;SDS011;10676;50.848;3.272;2023-01-16T13:15:21;10.45;;;9.57;;
21034;SDS011;10676;50.848;3.272;2023-01-16T13:18:05;9.45;;;8.70;;
21034;SDS011;10676;50.848;3.272;2023-01-16T13:20:35;9.88;;;9.02;;
21034;SDS011;10676;50.848;3.272;2023-01-16T13:23:04;12.13;;;10.95;;
21034;SDS011;10676;50.848;3.272;2023-01-16T13:25:43;12.07;;;11.18;;
21034;SDS011;10676;50.848;3.272;2023-01-16T13:30:48;9.85;;;8.80;;
21034;SDS011;10676;50.848;3.272;2023-01-16T13:33:22;16.48;;;15.38;;
21034;SDS011;10676;50.848;3.272;2023-01-16T13:41:50;8.40;;;7.40;;
21034;SDS011;10676;50.848;3.272;2023-01-16T13:44:25;10.50;;;9.52;;
21034;SDS011;10676;50.848;3.272;2023-01-16T13:47:15;17.53;;;16.17;;
21034;SDS011;10676;50.848;3.272;2023-01-16T13:49:49;9.20;;;8.43;;
21034;SDS011;10676;50.848;3.272;2023-01-16T13:52:20;9.45;;;8.82;;
21034;SDS011;10676;50.848;3.272;2023-01-16T13:54:51;8.85;;;8.10;;
21034;SDS011;10676;50.848;3.272;2023-01-16T13:57:20;16.30;;;15.00;;
21034;SDS011;10676;50.848;3.272;2023-01-16T13:59:50;8.97;;;8.13;;
21034;SDS011;10676;50.848;3.272;2023-01-16T14:02:27;25.30;;;22.55;;
21034;SDS011;10676;50.848;3.272;2023-01-16T14:10:45;19.58;;;18.25;;
21034;SDS011;10676;50.848;3.272;2023-01-16T14:15:50;15.85;;;14.95;;
21034;SDS011;10676;50.848;3.272;2023-01-16T14:21:14;13.48;;;12.52;;
21034;SDS011;10676;50.848;3.272;2023-01-16T14:23:41;15.07;;;13.88;;
21034;SDS011;10676;50.848;3.272;2023-01-16T14:26:34;12.65;;;11.95;;
21034;SDS011;10676;50.848;3.272;2023-01-16T14:31:51;15.77;;;14.43;;
21034;SDS011;10676;50.848;3.272;2023-01-16T14:34:36;24.80;;;22.53;;
21034;SDS011;10676;50.848;3.272;2023-01-16T14:37:32;20.40;;;18.57;;
21034;SDS011;10676;50.848;3.272;2023-01-16T14:40:02;15.60;;;14.53;;
21034;SDS011;10676;50.848;3.272;2023-01-16T14:45:25;54.67;;;47.00;;
21034;SDS011;10676;50.848;3.272;2023-01-16T14:48:15;33.63;;;30.23;;
21034;SDS011;10676;50.848;3.272;2023-01-16T14:54:16;19.93;;;18.43;;
21034;SDS011;10676;50.848;3.272;2023-01-16T14:57:12;15.20;;;14.10;;
21034;SDS011;10676;50.848;3.272;2023-01-16T14:59:55;8.13;;;7.37;;
21034;SDS011;10676;50.848;3.272;2023-01-16T15:02:33;11.73;;;10.50;;
21034;SDS011;10676;50.848;3.272;2023-01-16T15:10:29;14.13;;;12.83;;
21034;SDS011;10676;50.848;3.272;2023-01-16T15:15:49;22.17;;;20.00;;
21034;SDS011;10676;50.848;3.272;2023-01-16T15:18:23;21.00;;;19.37;;
21034;SDS011;10676;50.848;3.272;2023-01-16T15:21:15;12.13;;;11.43;;
21034;SDS011;10676;50.848;3.272;2023-01-16T15:23:46;13.83;;;12.70;;
21034;SDS011;10676;50.848;3.272;2023-01-16T15:28:46;12.43;;;11.60;;
21034;SDS011;10676;50.848;3.272;2023-01-16T15:31:36;15.90;;;15.07;;
21034;SDS011;10676;50.848;3.272;2023-01-16T15:34:06;11.33;;;10.53;;
21034;SDS011;10676;50.848;3.272;2023-01-16T15:36:43;16.63;;;15.50;;
21034;SDS011;10676;50.848;3.272;2023-01-16T15:39:30;15.90;;;14.63;;
21034;SDS011;10676;50.848;3.272;2023-01-16T15:42:03;13.97;;;11.87;;
21034;SDS011;10676;50.848;3.272;2023-01-16T15:44:57;11.73;;;8.73;;
21034;SDS011;10676;50.848;3.272;2023-01-16T15:47:53;11.20;;;10.33;;
21034;SDS011;10676;50.848;3.272;2023-01-16T15:53:22;10.23;;;9.30;;
21034;SDS011;10676;50.848;3.272;2023-01-16T15:55:50;14.37;;;13.40;;
21034;SDS011;10676;50.848;3.272;2023-01-16T15:58:23;11.13;;;9.80;;
21034;SDS011;10676;50.848;3.272;2023-01-16T16:00:59;26.80;;;24.43;;
21034;SDS011;10676;50.848;3.272;2023-01-16T16:03:29;10.60;;;9.63;;
21034;SDS011;10676;50.848;3.272;2023-01-16T16:06:04;10.87;;;9.63;;
21034;SDS011;10676;50.848;3.272;2023-01-16T16:08:34;10.70;;;9.80;;
21034;SDS011;10676;50.848;3.272;2023-01-16T16:11:03;18.20;;;13.87;;
21034;SDS011;10676;50.848;3.272;2023-01-16T16:13:49;15.70;;;11.17;;
21034;SDS011;10676;50.848;3.272;2023-01-16T16:19:07;12.73;;;9.97;;
21034;SDS011;10676;50.848;3.272;2023-01-16T16:21:36;10.27;;;9.27;;
21034;SDS011;10676;50.848;3.272;2023-01-16T16:24:27;19.27;;;9.63;;
21034;SDS011;10676;50.848;3.272;2023-01-16T16:26:53;16.97;;;10.20;;
21034;SDS011;10676;50.848;3.272;2023-01-16T16:29:19;12.30;;;11.00;;
21034;SDS011;10676;50.848;3.272;2023-01-16T16:31:46;13.30;;;10.50;;
21034;SDS011;10676;50.848;3.272;2023-01-16T16:34:22;11.93;;;10.43;;
21034;SDS011;10676;50.848;3.272;2023-01-16T16:36:50;13.13;;;11.53;;
21034;SDS011;10676;50.848;3.272;2023-01-16T16:42:01;18.80;;;16.83;;
21034;SDS011;10676;50.848;3.272;2023-01-16T16:47:35;14.33;;;12.97;;
21034;SDS011;10676;50.848;3.272;2023-01-16T16:50:23;17.50;;;14.07;;
21034;SDS011;10676;50.848;3.272;2023-01-16T16:52:52;16.27;;;14.47;;
21034;SDS011;10676;50.848;3.272;2023-01-16T16:57:59;34.10;;;30.90;;
21034;SDS011;10676;50.848;3.272;2023-01-16T17:00:28;30.20;;;27.23;;
21034;SDS011;10676;50.848;3.272;2023-01-16T17:05:50;33.53;;;31.40;;
21034;SDS011;10676;50.848;3.272;2023-01-16T17:08:19;31.03;;;28.13;;
21034;SDS011;10676;50.848;3.272;2023-01-16T17:10:47;27.80;;;25.17;;
21034;SDS011;10676;50.848;3.272;2023-01-16T17:13:19;28.73;;;26.17;;
21034;SDS011;10676;50.848;3.272;2023-01-16T17:15:46;20.50;;;18.53;;
21034;SDS011;10676;50.848;3.272;2023-01-16T17:18:14;32.50;;;29.57;;
21034;SDS011;10676;50.848;3.272;2023-01-16T17:20:41;20.23;;;15.23;;
21034;SDS011;10676;50.848;3.272;2023-01-16T17:23:10;28.73;;;26.50;;
21034;SDS011;10676;50.848;3.272;2023-01-16T17:25:38;16.10;;;14.53;;
21034;SDS011;10676;50.848;3.272;2023-01-16T17:28:04;20.57;;;18.50;;
21034;SDS011;10676;50.848;3.272;2023-01-16T17:30:30;23.50;;;21.80;;
21034;SDS011;10676;50.848;3.272;2023-01-16T17:32:57;22.57;;;21.07;;
21034;SDS011;10676;50.848;3.272;2023-01-16T17:35:25;24.73;;;22.70;;
21034;SDS011;10676;50.848;3.272;2023-01-16T17:37:51;21.00;;;19.57;;
21034;SDS011;10676;50.848;3.272;2023-01-16T17:40:17;19.37;;;18.10;;
21034;SDS011;10676;50.848;3.272;2023-01-16T17:42:42;679.53;;;345.37;;
21034;SDS011;10676;50.848;3.272;2023-01-16T17:45:40;1999.90;;;999.90;;
21034;SDS011;10676;50.848;3.272;2023-01-16T17:48:18;1999.90;;;999.90;;